sensor_id;sensor_type;location;lat;lon;timestamp;pressure;altitude;pressure_sealevel;temperature;humidity
64354;BME280;50681;53.334;-6.536;2023-03-15T00:00:21;100833.56;;;4.37;100.00
64354;BME280;50681;53.334;-6.536;2023-03-15T00:02:47;100836.91;;;4.44;100.00
64354;BME280;50681;53.334;-6.536;2023-03-15T00:05:13;100827.56;;;4.47;100.00
64354;BME280;50681;53.334;-6.536;2023-03-15T00:07:39;100834.06;;;4.34;100.00
64354;BME280;50681;53.334;-6.536;2023-03-15T00:10:06;100833.56;;;4.37;100.00
64354;BME280;50681;53.334;-6.536;2023-03-15T00:12:31;100857.47;;;4.90;100.00
64354;BME280;50681;53.334;-6.536;2023-03-15T00:14:58;100855.53;;;4.39;100.00
64354;BME280;50681;53.334;-6.536;2023-03-15T00:17:24;100862.19;;;4.53;100.00
64354;BME280;50681;53.334;-6.536;2023-03-15T00:19:50;100844.44;;;4.47;100.00
64354;BME280;50681;53.334;-6.536;2023-03-15T00:22:15;100851.53;;;4.88;100.00
64354;BME280;50681;53.334;-6.536;2023-03-15T00:24:41;100844.41;;;4.76;100.00
64354;BME280;50681;53.334;-6.536;2023-03-15T00:27:06;100849.84;;;4.81;100.00
64354;BME280;50681;53.334;-6.536;2023-03-15T00:29:32;100838.41;;;5.03;100.00
64354;BME280;50681;53.334;-6.536;2023-03-15T00:31:58;100809.47;;;4.66;100.00
64354;BME280;50681;53.334;-6.536;2023-03-15T00:34:23;100815.69;;;4.54;100.00
64354;BME280;50681;53.334;-6.536;2023-03-15T00:36:51;100814.47;;;4.79;100.00
64354;BME280;50681;53.334;-6.536;2023-03-15T00:39:20;100805.31;;;4.41;100.00
64354;BME280;50681;53.334;-6.536;2023-03-15T00:41:45;100811.34;;;4.36;100.00
64354;BME280;50681;53.334;-6.536;2023-03-15T00:44:11;100830.03;;;4.99;100.00
64354;BME280;50681;53.334;-6.536;2023-03-15T00:46:37;100835.53;;;4.59;100.00
64354;BME280;50681;53.334;-6.536;2023-03-15T00:49:02;100793.94;;;4.34;100.00
64354;BME280;50681;53.334;-6.536;2023-03-15T00:51:28;100824.75;;;4.70;100.00
64354;BME280;50681;53.334;-6.536;2023-03-15T00:53:54;100820.41;;;4.81;100.00
64354;BME280;50681;53.334;-6.536;2023-03-15T00:56:22;100801.41;;;4.49;100.00
64354;BME280;50681;53.334;-6.536;2023-03-15T00:58:48;100824.06;;;4.75;100.00
64354;BME280;50681;53.334;-6.536;2023-03-15T01:01:25;100821.50;;;5.03;100.00
64354;BME280;50681;53.334;-6.536;2023-03-15T01:03:51;100820.72;;;4.68;100.00
64354;BME280;50681;53.334;-6.536;2023-03-15T01:06:24;100817.53;;;4.88;100.00
64354;BME280;50681;53.334;-6.536;2023-03-15T01:08:51;100817.47;;;4.66;100.00
64354;BME280;50681;53.334;-6.536;2023-03-15T01:11:19;100825.19;;;4.79;100.00
64354;BME280;50681;53.334;-6.536;2023-03-15T01:13:45;100820.72;;;4.68;100.00
64354;BME280;50681;53.334;-6.536;2023-03-15T01:16:12;100834.94;;;4.39;100.00
64354;BME280;50681;53.334;-6.536;2023-03-15T01:18:38;100811.72;;;4.11;100.00
64354;BME280;50681;53.334;-6.536;2023-03-15T01:21:08;100819.63;;;4.35;100.00
64354;BME280;50681;53.334;-6.536;2023-03-15T01:23:34;100832.34;;;4.28;100.00
64354;BME280;50681;53.334;-6.536;2023-03-15T01:26:01;100839.06;;;4.30;100.00
64354;BME280;50681;53.334;-6.536;2023-03-15T01:28:27;100829.09;;;4.25;100.00
64354;BME280;50681;53.334;-6.536;2023-03-15T01:30:53;100817.19;;;3.75;100.00
64354;BME280;50681;53.334;-6.536;2023-03-15T01:33:19;100822.25;;;3.89;100.00
64354;BME280;50681;53.334;-6.536;2023-03-15T01:35:45;100807.16;;;3.82;100.00
64354;BME280;50681;53.334;-6.536;2023-03-15T01:38:11;100803.28;;;3.61;100.00
64354;BME280;50681;53.334;-6.536;2023-03-15T01:40:44;100788.94;;;3.79;100.00
64354;BME280;50681;53.334;-6.536;2023-03-15T01:43:14;100790.81;;;3.79;100.00
64354;BME280;50681;53.334;-6.536;2023-03-15T01:53:41;100814.84;;;3.79;100.00
64354;BME280;50681;53.334;-6.536;2023-03-15T01:56:08;100807.34;;;4.05;100.00
64354;BME280;50681;53.334;-6.536;2023-03-15T01:58:35;100820.22;;;4.08;100.00
64354;BME280;50681;53.334;-6.536;2023-03-15T02:01:02;100821.00;;;4.08;100.00
64354;BME280;50681;53.334;-6.536;2023-03-15T02:03:35;100825.88;;;4.40;100.00
64354;BME280;50681;53.334;-6.536;2023-03-15T02:06:06;100799.31;;;4.34;100.00
64354;BME280;50681;53.334;-6.536;2023-03-15T02:08:37;100794.44;;;4.48;100.00
64354;BME280;50681;53.334;-6.536;2023-03-15T02:11:04;100810.34;;;4.54;100.00
64354;BME280;50681;53.334;-6.536;2023-03-15T02:13:32;100791.19;;;4.46;100.00
64354;BME280;50681;53.334;-6.536;2023-03-15T02:15:59;100816.00;;;4.41;100.00
64354;BME280;50681;53.334;-6.536;2023-03-15T02:18:26;100789.56;;;4.28;100.00
64354;BME280;50681;53.334;-6.536;2023-03-15T02:23:26;100796.53;;;4.46;100.00
64354;BME280;50681;53.334;-6.536;2023-03-15T02:26:14;100808.00;;;4.75;100.00
64354;BME280;50681;53.334;-6.536;2023-03-15T02:28:42;100796.50;;;4.58;100.00
64354;BME280;50681;53.334;-6.536;2023-03-15T02:31:09;100792.41;;;4.55;100.00
64354;BME280;50681;53.334;-6.536;2023-03-15T02:33:42;100787.47;;;4.81;100.00
64354;BME280;50681;53.334;-6.536;2023-03-15T02:36:26;100783.59;;;4.89;100.00
64354;BME280;50681;53.334;-6.536;2023-03-15T02:38:53;100783.34;;;4.73;100.00
64354;BME280;50681;53.334;-6.536;2023-03-15T02:41:39;100758.31;;;4.79;100.00
64354;BME280;50681;53.334;-6.536;2023-03-15T02:44:20;100774.16;;;4.86;100.00
64354;BME280;50681;53.334;-6.536;2023-03-15T02:46:49;100768.66;;;4.76;100.00
64354;BME280;50681;53.334;-6.536;2023-03-15T02:49:17;100754.66;;;4.68;100.00
64354;BME280;50681;53.334;-6.536;2023-03-15T02:51:45;100753.28;;;4.66;100.00
64354;BME280;50681;53.334;-6.536;2023-03-15T02:54:11;100744.63;;;4.59;100.00
64354;BME280;50681;53.334;-6.536;2023-03-15T02:56:36;100757.50;;;4.62;100.00
64354;BME280;50681;53.334;-6.536;2023-03-15T02:59:02;100717.41;;;4.84;100.00
64354;BME280;50681;53.334;-6.536;2023-03-15T03:01:27;100730.69;;;4.56;100.00
64354;BME280;50681;53.334;-6.536;2023-03-15T03:03:53;100747.28;;;4.59;100.00
64354;BME280;50681;53.334;-6.536;2023-03-15T03:06:18;100733.84;;;4.53;100.00
64354;BME280;50681;53.334;-6.536;2023-03-15T03:08:43;100745.25;;;4.66;100.00
64354;BME280;50681;53.334;-6.536;2023-03-15T03:11:12;100736.56;;;5.37;100.00
64354;BME280;50681;53.334;-6.536;2023-03-15T03:13:38;100729.03;;;5.12;100.00
64354;BME280;50681;53.334;-6.536;2023-03-15T03:16:04;100722.56;;;5.52;100.00
64354;BME280;50681;53.334;-6.536;2023-03-15T03:18:30;100718.69;;;5.43;100.00
64354;BME280;50681;53.334;-6.536;2023-03-15T03:21:02;100723.13;;;5.82;100.00
64354;BME280;50681;53.334;-6.536;2023-03-15T03:23:29;100720.44;;;5.82;100.00
64354;BME280;50681;53.334;-6.536;2023-03-15T03:25:55;100710.41;;;5.44;100.00
64354;BME280;50681;53.334;-6.536;2023-03-15T03:28:22;100723.91;;;6.05;100.00
64354;BME280;50681;53.334;-6.536;2023-03-15T03:30:48;100688.53;;;5.53;100.00
64354;BME280;50681;53.334;-6.536;2023-03-15T03:33:14;100709.28;;;5.63;100.00
64354;BME280;50681;53.334;-6.536;2023-03-15T03:35:40;100708.81;;;4.99;100.00
64354;BME280;50681;53.334;-6.536;2023-03-15T03:38:06;100711.16;;;4.95;100.00
64354;BME280;50681;53.334;-6.536;2023-03-15T03:40:32;100712.69;;;4.91;100.00
64354;BME280;50681;53.334;-6.536;2023-03-15T03:42:57;100683.81;;;4.71;100.00
64354;BME280;50681;53.334;-6.536;2023-03-15T03:45:22;100690.66;;;4.84;100.00
64354;BME280;50681;53.334;-6.536;2023-03-15T03:47:48;100684.53;;;4.66;100.00
64354;BME280;50681;53.334;-6.536;2023-03-15T03:50:16;100699.19;;;5.48;100.00
64354;BME280;50681;53.334;-6.536;2023-03-15T03:52:48;100683.78;;;5.60;100.00
64354;BME280;50681;53.334;-6.536;2023-03-15T03:55:13;100696.84;;;5.51;100.00
64354;BME280;50681;53.334;-6.536;2023-03-15T03:57:41;100684.84;;;5.59;100.00
64354;BME280;50681;53.334;-6.536;2023-03-15T04:00:09;100682.50;;;5.63;100.00
64354;BME280;50681;53.334;-6.536;2023-03-15T04:02:35;100685.44;;;5.39;100.00
64354;BME280;50681;53.334;-6.536;2023-03-15T04:05:01;100692.56;;;5.06;100.00
64354;BME280;50681;53.334;-6.536;2023-03-15T04:07:26;100701.41;;;5.06;100.00
64354;BME280;50681;53.334;-6.536;2023-03-15T04:09:52;100680.25;;;5.27;100.00
64354;BME280;50681;53.334;-6.536;2023-03-15T04:12:17;100701.97;;;5.08;100.00
64354;BME280;50681;53.334;-6.536;2023-03-15T04:14:43;100696.03;;;5.28;100.00
64354;BME280;50681;53.334;-6.536;2023-03-15T04:17:08;100669.88;;;5.36;100.00
64354;BME280;50681;53.334;-6.536;2023-03-15T04:19:34;100679.53;;;5.37;100.00
64354;BME280;50681;53.334;-6.536;2023-03-15T04:22:00;100676.34;;;5.40;100.00
64354;BME280;50681;53.334;-6.536;2023-03-15T04:24:35;100691.06;;;5.65;100.00
64354;BME280;50681;53.334;-6.536;2023-03-15T04:27:01;100673.53;;;5.52;100.00
64354;BME280;50681;53.334;-6.536;2023-03-15T04:29:27;100667.25;;;5.41;100.00
64354;BME280;50681;53.334;-6.536;2023-03-15T04:31:53;100670.97;;;5.12;100.00
64354;BME280;50681;53.334;-6.536;2023-03-15T04:34:26;100674.63;;;5.56;100.00
64354;BME280;50681;53.334;-6.536;2023-03-15T04:36:52;100680.81;;;5.56;100.00
64354;BME280;50681;53.334;-6.536;2023-03-15T04:39:19;100694.84;;;5.41;100.00
64354;BME280;50681;53.334;-6.536;2023-03-15T04:41:44;100694.16;;;5.51;100.00
64354;BME280;50681;53.334;-6.536;2023-03-15T04:44:09;100706.00;;;4.89;100.00
64354;BME280;50681;53.334;-6.536;2023-03-15T04:46:43;100687.19;;;5.06;100.00
64354;BME280;50681;53.334;-6.536;2023-03-15T04:49:09;100693.09;;;4.85;100.00
64354;BME280;50681;53.334;-6.536;2023-03-15T04:51:41;100694.31;;;5.17;100.00
64354;BME280;50681;53.334;-6.536;2023-03-15T04:54:06;100687.00;;;4.90;100.00
64354;BME280;50681;53.334;-6.536;2023-03-15T04:56:31;100679.25;;;4.89;100.00
64354;BME280;50681;53.334;-6.536;2023-03-15T04:58:57;100679.81;;;4.91;100.00
64354;BME280;50681;53.334;-6.536;2023-03-15T05:01:27;100699.97;;;5.21;100.00
64354;BME280;50681;53.334;-6.536;2023-03-15T05:03:54;100673.88;;;4.89;100.00
64354;BME280;50681;53.334;-6.536;2023-03-15T05:06:19;100661.00;;;4.85;100.00
64354;BME280;50681;53.334;-6.536;2023-03-15T05:08:45;100674.44;;;4.91;100.00
64354;BME280;50681;53.334;-6.536;2023-03-15T05:11:11;100689.66;;;5.07;100.00
64354;BME280;50681;53.334;-6.536;2023-03-15T05:13:36;100662.75;;;4.97;100.00
64354;BME280;50681;53.334;-6.536;2023-03-15T05:16:02;100685.41;;;5.11;100.00
64354;BME280;50681;53.334;-6.536;2023-03-15T05:18:28;100667.16;;;5.58;100.00
64354;BME280;50681;53.334;-6.536;2023-03-15T05:20:53;100672.56;;;5.36;100.00
64354;BME280;50681;53.334;-6.536;2023-03-15T05:23:22;100674.31;;;5.25;100.00
64354;BME280;50681;53.334;-6.536;2023-03-15T05:25:54;100695.84;;;6.12;100.00
64354;BME280;50681;53.334;-6.536;2023-03-15T05:28:23;100675.50;;;6.16;100.00
64354;BME280;50681;53.334;-6.536;2023-03-15T05:30:50;100683.75;;;6.10;100.00
64354;BME280;50681;53.334;-6.536;2023-03-15T05:33:20;100668.31;;;6.27;100.00
64354;BME280;50681;53.334;-6.536;2023-03-15T05:35:45;100656.94;;;5.82;100.00
64354;BME280;50681;53.334;-6.536;2023-03-15T05:38:12;100673.16;;;5.98;100.00
64354;BME280;50681;53.334;-6.536;2023-03-15T05:40:42;100665.38;;;5.96;100.00
64354;BME280;50681;53.334;-6.536;2023-03-15T05:43:08;100661.06;;;5.95;100.00
64354;BME280;50681;53.334;-6.536;2023-03-15T05:45:35;100676.22;;;6.07;100.00
64354;BME280;50681;53.334;-6.536;2023-03-15T05:48:00;100669.56;;;5.87;100.00
64354;BME280;50681;53.334;-6.536;2023-03-15T05:50:26;100651.69;;;5.93;100.00
64354;BME280;50681;53.334;-6.536;2023-03-15T05:52:55;100656.94;;;6.10;100.00
64354;BME280;50681;53.334;-6.536;2023-03-15T05:55:22;100663.47;;;5.92;100.00
64354;BME280;50681;53.334;-6.536;2023-03-15T05:57:47;100676.22;;;5.79;100.00
64354;BME280;50681;53.334;-6.536;2023-03-15T06:00:13;100667.44;;;5.89;100.00
64354;BME280;50681;53.334;-6.536;2023-03-15T06:02:41;100644.56;;;6.03;100.00
64354;BME280;50681;53.334;-6.536;2023-03-15T06:05:06;100644.47;;;5.98;100.00
64354;BME280;50681;53.334;-6.536;2023-03-15T06:07:32;100648.56;;;6.01;100.00
64354;BME280;50681;53.334;-6.536;2023-03-15T06:09:57;100644.94;;;5.90;100.00
64354;BME280;50681;53.334;-6.536;2023-03-15T06:12:23;100652.94;;;6.12;100.00
64354;BME280;50681;53.334;-6.536;2023-03-15T06:14:48;100632.00;;;5.82;100.00
64354;BME280;50681;53.334;-6.536;2023-03-15T06:17:14;100643.41;;;5.99;100.00
64354;BME280;50681;53.334;-6.536;2023-03-15T06:19:39;100637.50;;;5.97;100.00
64354;BME280;50681;53.334;-6.536;2023-03-15T06:22:04;100644.56;;;6.03;100.00
64354;BME280;50681;53.334;-6.536;2023-03-15T06:24:32;100635.66;;;6.36;100.00
64354;BME280;50681;53.334;-6.536;2023-03-15T06:26:58;100622.25;;;6.36;100.00
64354;BME280;50681;53.334;-6.536;2023-03-15T06:29:24;100614.94;;;6.21;100.00
64354;BME280;50681;53.334;-6.536;2023-03-15T06:31:50;100633.13;;;6.13;100.00
64354;BME280;50681;53.334;-6.536;2023-03-15T06:34:16;100630.38;;;6.51;100.00
64354;BME280;50681;53.334;-6.536;2023-03-15T06:36:42;100622.34;;;6.08;100.00
64354;BME280;50681;53.334;-6.536;2023-03-15T06:39:08;100623.44;;;6.12;100.00
64354;BME280;50681;53.334;-6.536;2023-03-15T06:41:36;100593.09;;;6.07;100.00
64354;BME280;50681;53.334;-6.536;2023-03-15T06:44:01;100615.22;;;6.24;100.00
64354;BME280;50681;53.334;-6.536;2023-03-15T06:46:27;100605.00;;;6.21;100.00
64354;BME280;50681;53.334;-6.536;2023-03-15T06:48:52;100609.84;;;6.24;100.00
64354;BME280;50681;53.334;-6.536;2023-03-15T06:51:18;100629.44;;;6.25;100.00
64354;BME280;50681;53.334;-6.536;2023-03-15T06:53:43;100615.22;;;6.24;100.00
64354;BME280;50681;53.334;-6.536;2023-03-15T06:56:09;100610.97;;;6.33;100.00
64354;BME280;50681;53.334;-6.536;2023-03-15T06:58:35;100604.78;;;6.28;100.00
64354;BME280;50681;53.334;-6.536;2023-03-15T07:01:01;100592.06;;;6.56;100.00
64354;BME280;50681;53.334;-6.536;2023-03-15T07:03:26;100591.16;;;6.98;100.00
64354;BME280;50681;53.334;-6.536;2023-03-15T07:05:52;100585.59;;;6.46;100.00
64354;BME280;50681;53.334;-6.536;2023-03-15T07:08:19;100601.13;;;6.44;100.00
64354;BME280;50681;53.334;-6.536;2023-03-15T07:10:45;100581.72;;;6.85;100.00
64354;BME280;50681;53.334;-6.536;2023-03-15T07:13:13;100590.06;;;6.36;100.00
64354;BME280;50681;53.334;-6.536;2023-03-15T07:15:39;100575.03;;;6.35;100.00
64354;BME280;50681;53.334;-6.536;2023-03-15T07:18:05;100563.81;;;6.43;100.00
64354;BME280;50681;53.334;-6.536;2023-03-15T07:20:30;100561.16;;;6.48;100.00
64354;BME280;50681;53.334;-6.536;2023-03-15T07:22:56;100550.75;;;6.57;100.00
64354;BME280;50681;53.334;-6.536;2023-03-15T07:25:22;100565.84;;;6.68;100.00
64354;BME280;50681;53.334;-6.536;2023-03-15T07:27:50;100559.13;;;6.76;100.00
64354;BME280;50681;53.334;-6.536;2023-03-15T07:30:16;100544.66;;;6.77;100.00
64354;BME280;50681;53.334;-6.536;2023-03-15T07:32:42;100554.84;;;6.80;100.00
64354;BME280;50681;53.334;-6.536;2023-03-15T07:35:08;100571.53;;;6.93;100.00
64354;BME280;50681;53.334;-6.536;2023-03-15T07:37:33;100578.03;;;7.17;100.00
64354;BME280;50681;53.334;-6.536;2023-03-15T07:39:59;100570.53;;;7.19;100.00
64354;BME280;50681;53.334;-6.536;2023-03-15T07:42:43;100577.28;;;7.32;100.00
64354;BME280;50681;53.334;-6.536;2023-03-15T07:45:08;100579.69;;;7.39;100.00
64354;BME280;50681;53.334;-6.536;2023-03-15T07:47:35;100560.09;;;7.33;100.00
64354;BME280;50681;53.334;-6.536;2023-03-15T07:50:01;100573.00;;;7.37;100.00
64354;BME280;50681;53.334;-6.536;2023-03-15T07:52:28;100575.69;;;7.47;100.00
64354;BME280;50681;53.334;-6.536;2023-03-15T07:54:53;100554.97;;;7.37;100.00
64354;BME280;50681;53.334;-6.536;2023-03-15T07:57:18;100565.72;;;7.47;100.00
64354;BME280;50681;53.334;-6.536;2023-03-15T07:59:44;100550.16;;;7.49;100.00
64354;BME280;50681;53.334;-6.536;2023-03-15T08:02:11;100559.03;;;7.45;100.00
64354;BME280;50681;53.334;-6.536;2023-03-15T08:04:38;100549.34;;;7.44;100.00
64354;BME280;50681;53.334;-6.536;2023-03-15T08:07:04;100549.03;;;8.07;100.00
64354;BME280;50681;53.334;-6.536;2023-03-15T08:09:31;100545.84;;;7.69;100.00
64354;BME280;50681;53.334;-6.536;2023-03-15T08:12:00;100533.22;;;7.75;100.00
64354;BME280;50681;53.334;-6.536;2023-03-15T08:14:26;100537.78;;;7.74;100.00
64354;BME280;50681;53.334;-6.536;2023-03-15T08:16:52;100560.63;;;7.82;100.00
64354;BME280;50681;53.334;-6.536;2023-03-15T08:19:18;100545.31;;;7.72;100.00
64354;BME280;50681;53.334;-6.536;2023-03-15T08:21:43;100547.47;;;7.80;100.00
64354;BME280;50681;53.334;-6.536;2023-03-15T08:24:12;100546.66;;;7.80;100.00
64354;BME280;50681;53.334;-6.536;2023-03-15T08:26:38;100532.97;;;7.61;100.00
64354;BME280;50681;53.334;-6.536;2023-03-15T08:29:03;100525.00;;;8.37;100.00
64354;BME280;50681;53.334;-6.536;2023-03-15T08:31:35;100534.91;;;8.62;100.00
64354;BME280;50681;53.334;-6.536;2023-03-15T08:34:01;100529.69;;;8.76;100.00
64354;BME280;50681;53.334;-6.536;2023-03-15T08:36:27;100552.97;;;9.07;100.00
64354;BME280;50681;53.334;-6.536;2023-03-15T08:38:52;100538.72;;;8.46;100.00
64354;BME280;50681;53.334;-6.536;2023-03-15T08:41:18;100550.81;;;8.53;100.00
64354;BME280;50681;53.334;-6.536;2023-03-15T08:43:43;100518.28;;;8.34;100.00
64354;BME280;50681;53.334;-6.536;2023-03-15T08:46:12;100522.00;;;8.59;100.00
64354;BME280;50681;53.334;-6.536;2023-03-15T08:48:37;100502.38;;;8.43;100.00
64354;BME280;50681;53.334;-6.536;2023-03-15T08:51:04;100528.66;;;8.67;100.00
64354;BME280;50681;53.334;-6.536;2023-03-15T08:53:30;100505.06;;;8.53;100.00
64354;BME280;50681;53.334;-6.536;2023-03-15T08:55:56;100497.78;;;8.54;100.00
64354;BME280;50681;53.334;-6.536;2023-03-15T08:58:22;100504.66;;;8.81;100.00
64354;BME280;50681;53.334;-6.536;2023-03-15T09:00:48;100515.94;;;8.88;100.00
64354;BME280;50681;53.334;-6.536;2023-03-15T09:03:14;100500.00;;;8.92;100.00
64354;BME280;50681;53.334;-6.536;2023-03-15T09:05:44;100507.97;;;9.77;100.00
64354;BME280;50681;53.334;-6.536;2023-03-15T09:08:10;100495.84;;;9.10;100.00
64354;BME280;50681;53.334;-6.536;2023-03-15T09:10:36;100498.13;;;8.92;100.00
64354;BME280;50681;53.334;-6.536;2023-03-15T09:13:01;100485.38;;;9.03;100.00
64354;BME280;50681;53.334;-6.536;2023-03-15T09:15:27;100494.56;;;9.02;100.00
64354;BME280;50681;53.334;-6.536;2023-03-15T09:17:52;100487.81;;;9.05;100.00
64354;BME280;50681;53.334;-6.536;2023-03-15T09:20:21;100489.34;;;9.16;100.00
64354;BME280;50681;53.334;-6.536;2023-03-15T09:22:55;100494.66;;;9.26;100.00
64354;BME280;50681;53.334;-6.536;2023-03-15T09:25:22;100481.22;;;9.21;100.00
64354;BME280;50681;53.334;-6.536;2023-03-15T09:27:48;100491.44;;;9.24;100.00
64354;BME280;50681;53.334;-6.536;2023-03-15T09:30:14;100472.59;;;9.24;100.00
64354;BME280;50681;53.334;-6.536;2023-03-15T09:32:40;100466.16;;;9.20;100.00
64354;BME280;50681;53.334;-6.536;2023-03-15T09:35:11;100473.19;;;9.46;100.00
64354;BME280;50681;53.334;-6.536;2023-03-15T09:37:37;100462.31;;;9.26;100.00
64354;BME280;50681;53.334;-6.536;2023-03-15T09:40:03;100470.31;;;9.37;100.00
64354;BME280;50681;53.334;-6.536;2023-03-15T09:45:09;100464.59;;;9.44;100.00
64354;BME280;50681;53.334;-6.536;2023-03-15T09:47:46;100447.22;;;9.31;100.00
64354;BME280;50681;53.334;-6.536;2023-03-15T09:50:21;100452.78;;;9.39;100.00
64354;BME280;50681;53.334;-6.536;2023-03-15T09:53:03;100427.16;;;9.42;100.00
64354;BME280;50681;53.334;-6.536;2023-03-15T09:55:30;100450.47;;;9.27;100.00
64354;BME280;50681;53.334;-6.536;2023-03-15T09:58:00;100435.28;;;9.37;100.00
64354;BME280;50681;53.334;-6.536;2023-03-15T10:00:37;100441.44;;;9.72;100.00
64354;BME280;50681;53.334;-6.536;2023-03-15T10:03:04;100430.19;;;9.65;100.00
64354;BME280;50681;53.334;-6.536;2023-03-15T10:05:41;100441.78;;;9.90;100.00
64354;BME280;50681;53.334;-6.536;2023-03-15T10:08:10;100412.75;;;9.81;100.00
64354;BME280;50681;53.334;-6.536;2023-03-15T10:10:41;100418.06;;;9.87;100.00
64354;BME280;50681;53.334;-6.536;2023-03-15T10:21:05;100395.69;;;10.29;100.00
64354;BME280;50681;53.334;-6.536;2023-03-15T10:24:12;100396.44;;;10.54;100.00
64354;BME280;50681;53.334;-6.536;2023-03-15T10:26:39;100377.47;;;10.59;100.00
64354;BME280;50681;53.334;-6.536;2023-03-15T10:29:13;100378.09;;;10.90;100.00
64354;BME280;50681;53.334;-6.536;2023-03-15T10:31:42;100377.78;;;10.91;100.00
64354;BME280;50681;53.334;-6.536;2023-03-15T10:34:11;100358.19;;;10.99;100.00
64354;BME280;50681;53.334;-6.536;2023-03-15T10:36:37;100358.59;;;10.73;100.00
64354;BME280;50681;53.334;-6.536;2023-03-15T10:39:09;100384.19;;;10.95;100.00
64354;BME280;50681;53.334;-6.536;2023-03-15T10:41:38;100363.59;;;10.99;100.00
64354;BME280;50681;53.334;-6.536;2023-03-15T10:44:10;100386.91;;;10.95;100.00
64354;BME280;50681;53.334;-6.536;2023-03-15T10:46:36;100382.09;;;10.92;100.00
64354;BME280;50681;53.334;-6.536;2023-03-15T10:49:10;100378.25;;;11.26;100.00
64354;BME280;50681;53.334;-6.536;2023-03-15T10:51:44;100345.81;;;11.12;100.00
64354;BME280;50681;53.334;-6.536;2023-03-15T10:54:15;100365.66;;;11.36;100.00
64354;BME280;50681;53.334;-6.536;2023-03-15T10:57:05;100352.84;;;11.55;100.00
64354;BME280;50681;53.334;-6.536;2023-03-15T10:59:34;100348.56;;;11.40;100.00
64354;BME280;50681;53.334;-6.536;2023-03-15T11:07:36;100325.28;;;11.95;100.00
64354;BME280;50681;53.334;-6.536;2023-03-15T11:10:04;100326.19;;;12.04;100.00
64354;BME280;50681;53.334;-6.536;2023-03-15T11:12:32;100319.38;;;11.79;100.00
64354;BME280;50681;53.334;-6.536;2023-03-15T11:15:08;100294.53;;;11.91;100.00
64354;BME280;50681;53.334;-6.536;2023-03-15T11:17:41;100312.50;;;12.24;100.00
64354;BME280;50681;53.334;-6.536;2023-03-15T11:20:27;100302.16;;;12.26;100.00
64354;BME280;50681;53.334;-6.536;2023-03-15T11:22:56;100285.13;;;12.02;100.00
64354;BME280;50681;53.334;-6.536;2023-03-15T11:25:28;100278.78;;;12.30;100.00
64354;BME280;50681;53.334;-6.536;2023-03-15T11:30:28;100258.69;;;12.22;100.00
64354;BME280;50681;53.334;-6.536;2023-03-15T11:32:54;100259.59;;;12.17;100.00
64354;BME280;50681;53.334;-6.536;2023-03-15T11:35:30;100249.63;;;12.04;100.00
64354;BME280;50681;53.334;-6.536;2023-03-15T11:38:01;100241.22;;;11.91;100.00
64354;BME280;50681;53.334;-6.536;2023-03-15T11:40:32;100258.75;;;11.94;100.00
64354;BME280;50681;53.334;-6.536;2023-03-15T11:46:21;100230.81;;;12.22;100.00
64354;BME280;50681;53.334;-6.536;2023-03-15T11:48:54;100228.69;;;12.41;100.00
64354;BME280;50681;53.334;-6.536;2023-03-15T11:51:20;100221.66;;;12.31;100.00
64354;BME280;50681;53.334;-6.536;2023-03-15T11:59:30;100221.44;;;12.28;100.00
64354;BME280;50681;53.334;-6.536;2023-03-15T12:04:52;100208.63;;;12.42;100.00
64354;BME280;50681;53.334;-6.536;2023-03-15T12:18:02;100171.72;;;12.46;100.00
64354;BME280;50681;53.334;-6.536;2023-03-15T12:23:20;100176.44;;;12.72;100.00
64354;BME280;50681;53.334;-6.536;2023-03-15T12:25:57;100174.91;;;12.89;100.00
64354;BME280;50681;53.334;-6.536;2023-03-15T12:31:00;100155.22;;;13.06;100.00
64354;BME280;50681;53.334;-6.536;2023-03-15T12:33:28;100129.94;;;12.79;100.00
64354;BME280;50681;53.334;-6.536;2023-03-15T12:36:25;100145.81;;;13.12;100.00
64354;BME280;50681;53.334;-6.536;2023-03-15T12:39:01;100109.78;;;13.20;100.00
64354;BME280;50681;53.334;-6.536;2023-03-15T12:41:47;100123.19;;;13.34;100.00
64354;BME280;50681;53.334;-6.536;2023-03-15T12:47:01;100086.16;;;12.94;100.00
64354;BME280;50681;53.334;-6.536;2023-03-15T12:51:57;100095.88;;;13.04;100.00
64354;BME280;50681;53.334;-6.536;2023-03-15T12:54:27;100079.31;;;13.23;100.00
64354;BME280;50681;53.334;-6.536;2023-03-15T12:56:59;100075.63;;;13.37;100.00
64354;BME280;50681;53.334;-6.536;2023-03-15T12:59:44;100085.69;;;13.10;100.00
64354;BME280;50681;53.334;-6.536;2023-03-15T13:02:32;100051.53;;;12.74;100.00
64354;BME280;50681;53.334;-6.536;2023-03-15T13:07:57;100062.56;;;13.13;100.00
64354;BME280;50681;53.334;-6.536;2023-03-15T13:25:20;100010.31;;;13.86;100.00
64354;BME280;50681;53.334;-6.536;2023-03-15T13:27:55;100007.13;;;14.23;100.00
64354;BME280;50681;53.334;-6.536;2023-03-15T13:30:38;100001.19;;;14.30;100.00
64354;BME280;50681;53.334;-6.536;2023-03-15T13:35:53;100000.53;;;14.33;100.00
64354;BME280;50681;53.334;-6.536;2023-03-15T13:40:51;99969.06;;;14.02;100.00
64354;BME280;50681;53.334;-6.536;2023-03-15T13:43:17;99958.81;;;14.07;100.00
64354;BME280;50681;53.334;-6.536;2023-03-15T13:45:43;99972.63;;;14.53;100.00
64354;BME280;50681;53.334;-6.536;2023-03-15T13:48:09;99936.41;;;14.19;100.00
64354;BME280;50681;53.334;-6.536;2023-03-15T13:50:36;99947.00;;;14.33;100.00
64354;BME280;50681;53.334;-6.536;2023-03-15T13:53:02;99939.88;;;14.29;100.00
64354;BME280;50681;53.334;-6.536;2023-03-15T13:55:32;99940.94;;;14.58;100.00
64354;BME280;50681;53.334;-6.536;2023-03-15T13:58:05;99941.81;;;14.49;100.00
64354;BME280;50681;53.334;-6.536;2023-03-15T14:00:32;99927.56;;;14.52;100.00
64354;BME280;50681;53.334;-6.536;2023-03-15T14:03:05;99907.44;;;14.75;100.00
64354;BME280;50681;53.334;-6.536;2023-03-15T14:05:33;99914.50;;;14.67;100.00
64354;BME280;50681;53.334;-6.536;2023-03-15T14:08:17;99887.41;;;14.79;100.00